sensor_id;sensor_type;location;lat;lon;timestamp;pressure;altitude;pressure_sealevel;temperature;humidity
43125;BME280;49182;50.788;7.318;2024-01-15T00:00:04;99666.88;;;1.10;100.00
43125;BME280;49182;50.788;7.318;2024-01-15T00:05:11;99656.50;;;1.10;100.00
43125;BME280;49182;50.788;7.318;2024-01-15T00:10:14;99648.56;;;1.12;100.00
43125;BME280;49182;50.788;7.318;2024-01-15T00:15:15;99624.03;;;1.03;100.00
43125;BME280;49182;50.788;7.318;2024-01-15T00:20:17;99630.59;;;1.09;100.00
43125;BME280;49182;50.788;7.318;2024-01-15T00:25:20;99622.31;;;1.16;100.00
43125;BME280;49182;50.788;7.318;2024-01-15T00:30:22;99609.19;;;1.18;100.00
43125;BME280;49182;50.788;7.318;2024-01-15T00:35:23;99615.03;;;1.21;100.00
43125;BME280;49182;50.788;7.318;2024-01-15T00:40:26;99609.00;;;1.21;100.00
43125;BME280;49182;50.788;7.318;2024-01-15T00:45:28;99610.84;;;1.19;100.00
43125;BME280;49182;50.788;7.318;2024-01-15T00:50:30;99603.88;;;1.19;100.00
43125;BME280;49182;50.788;7.318;2024-01-15T00:55:33;99607.22;;;1.21;100.00
43125;BME280;49182;50.788;7.318;2024-01-15T01:00:35;99607.31;;;1.20;100.00
43125;BME280;49182;50.788;7.318;2024-01-15T01:05:37;99606.69;;;1.16;100.00
43125;BME280;49182;50.788;7.318;2024-01-15T01:10:40;99603.97;;;1.18;100.00
43125;BME280;49182;50.788;7.318;2024-01-15T01:15:41;99606.34;;;1.08;100.00
43125;BME280;49182;50.788;7.318;2024-01-15T01:20:43;99608.56;;;1.14;100.00
43125;BME280;49182;50.788;7.318;2024-01-15T01:25:46;99609.97;;;1.06;100.00
43125;BME280;49182;50.788;7.318;2024-01-15T01:30:48;99609.13;;;1.05;100.00
43125;BME280;49182;50.788;7.318;2024-01-15T01:35:50;99598.75;;;1.05;100.00
43125;BME280;49182;50.788;7.318;2024-01-15T01:40:53;99608.34;;;1.05;100.00
43125;BME280;49182;50.788;7.318;2024-01-15T01:45:56;99596.09;;;0.93;100.00
43125;BME280;49182;50.788;7.318;2024-01-15T01:51:00;99609.44;;;1.01;100.00
43125;BME280;49182;50.788;7.318;2024-01-15T01:56:07;99607.28;;;1.07;100.00
43125;BME280;49182;50.788;7.318;2024-01-15T02:01:09;99600.09;;;0.98;100.00
43125;BME280;49182;50.788;7.318;2024-01-15T02:06:11;99598.75;;;1.05;100.00
43125;BME280;49182;50.788;7.318;2024-01-15T02:11:14;99595.53;;;1.02;100.00
43125;BME280;49182;50.788;7.318;2024-01-15T02:16:16;99599.56;;;1.06;100.00
43125;BME280;49182;50.788;7.318;2024-01-15T02:21:18;99581.47;;;0.92;100.00
43125;BME280;49182;50.788;7.318;2024-01-15T02:26:21;99599.78;;;1.03;100.00
43125;BME280;49182;50.788;7.318;2024-01-15T02:31:23;99600.50;;;0.92;100.00
43125;BME280;49182;50.788;7.318;2024-01-15T02:36:25;99597.91;;;0.92;100.00
43125;BME280;49182;50.788;7.318;2024-01-15T02:41:28;99604.63;;;0.95;100.00
43125;BME280;49182;50.788;7.318;2024-01-15T02:46:30;99611.50;;;0.96;100.00
43125;BME280;49182;50.788;7.318;2024-01-15T02:51:31;99608.81;;;0.97;100.00
43125;BME280;49182;50.788;7.318;2024-01-15T02:56:34;99610.50;;;0.98;100.00
43125;BME280;49182;50.788;7.318;2024-01-15T03:01:39;99605.53;;;1.08;100.00
43125;BME280;49182;50.788;7.318;2024-01-15T03:06:40;99586.66;;;0.92;100.00
43125;BME280;49182;50.788;7.318;2024-01-15T03:11:43;99607.16;;;0.96;100.00
43125;BME280;49182;50.788;7.318;2024-01-15T03:16:45;99602.09;;;1.07;100.00
43125;BME280;49182;50.788;7.318;2024-01-15T03:21:47;99602.09;;;1.07;100.00
43125;BME280;49182;50.788;7.318;2024-01-15T03:26:50;99601.06;;;1.10;100.00
43125;BME280;49182;50.788;7.318;2024-01-15T03:31:52;99574.81;;;1.00;100.00
43125;BME280;49182;50.788;7.318;2024-01-15T03:36:53;99548.09;;;0.86;100.00
43125;BME280;49182;50.788;7.318;2024-01-15T03:41:57;99580.75;;;1.02;100.00
43125;BME280;49182;50.788;7.318;2024-01-15T03:46:59;99589.69;;;0.98;100.00
43125;BME280;49182;50.788;7.318;2024-01-15T03:52:00;99588.56;;;1.02;100.00
43125;BME280;49182;50.788;7.318;2024-01-15T03:57:04;99594.50;;;1.04;100.00
43125;BME280;49182;50.788;7.318;2024-01-15T04:02:06;99585.91;;;0.90;100.00
43125;BME280;49182;50.788;7.318;2024-01-15T04:07:07;99597.38;;;1.00;100.00
43125;BME280;49182;50.788;7.318;2024-01-15T04:12:10;99598.34;;;1.11;100.00
43125;BME280;49182;50.788;7.318;2024-01-15T04:17:12;99590.53;;;1.11;100.00
43125;BME280;49182;50.788;7.318;2024-01-15T04:22:14;99591.28;;;1.13;100.00
43125;BME280;49182;50.788;7.318;2024-01-15T04:27:17;99577.28;;;1.16;100.00
43125;BME280;49182;50.788;7.318;2024-01-15T04:32:18;99580.16;;;1.11;100.00
43125;BME280;49182;50.788;7.318;2024-01-15T04:37:20;99573.09;;;1.13;100.00
43125;BME280;49182;50.788;7.318;2024-01-15T04:42:24;99567.47;;;1.07;100.00
43125;BME280;49182;50.788;7.318;2024-01-15T04:47:25;99558.16;;;1.17;100.00
43125;BME280;49182;50.788;7.318;2024-01-15T04:52:27;99553.34;;;1.23;100.00
43125;BME280;49182;50.788;7.318;2024-01-15T04:57:30;99559.91;;;1.16;100.00
43125;BME280;49182;50.788;7.318;2024-01-15T05:02:32;99561.47;;;1.19;100.00
43125;BME280;49182;50.788;7.318;2024-01-15T05:07:34;99553.03;;;1.15;100.00
43125;BME280;49182;50.788;7.318;2024-01-15T05:12:37;99549.31;;;1.19;100.00
43125;BME280;49182;50.788;7.318;2024-01-15T05:17:38;99544.75;;;1.23;100.00
43125;BME280;49182;50.788;7.318;2024-01-15T05:22:40;99539.75;;;1.20;100.00
43125;BME280;49182;50.788;7.318;2024-01-15T05:27:43;99543.56;;;1.14;100.00
43125;BME280;49182;50.788;7.318;2024-01-15T05:32:45;99536.31;;;1.19;100.00
43125;BME280;49182;50.788;7.318;2024-01-15T05:37:46;99536.00;;;1.24;100.00
43125;BME280;49182;50.788;7.318;2024-01-15T05:42:50;99505.31;;;1.04;100.00
43125;BME280;49182;50.788;7.318;2024-01-15T05:47:52;99538.50;;;1.26;100.00
43125;BME280;49182;50.788;7.318;2024-01-15T05:52:53;99513.63;;;1.09;100.00
43125;BME280;49182;50.788;7.318;2024-01-15T05:57:56;99530.19;;;1.33;100.00
43125;BME280;49182;50.788;7.318;2024-01-15T06:02:58;99530.28;;;1.32;100.00
43125;BME280;49182;50.788;7.318;2024-01-15T06:08:00;99528.94;;;1.26;100.00
43125;BME280;49182;50.788;7.318;2024-01-15T06:13:03;99532.38;;;1.27;100.00
43125;BME280;49182;50.788;7.318;2024-01-15T06:18:06;99526.00;;;1.31;100.00
43125;BME280;49182;50.788;7.318;2024-01-15T06:23:08;99519.03;;;1.18;100.00
43125;BME280;49182;50.788;7.318;2024-01-15T06:28:11;99508.97;;;1.27;100.00
43125;BME280;49182;50.788;7.318;2024-01-15T06:33:13;99503.66;;;1.28;100.00
43125;BME280;49182;50.788;7.318;2024-01-15T06:38:15;99502.00;;;1.27;100.00
43125;BME280;49182;50.788;7.318;2024-01-15T06:43:18;99507.09;;;1.29;100.00
43125;BME280;49182;50.788;7.318;2024-01-15T06:48:20;99499.09;;;1.32;100.00
43125;BME280;49182;50.788;7.318;2024-01-15T06:53:22;99480.78;;;1.20;100.00
43125;BME280;49182;50.788;7.318;2024-01-15T06:58:25;99496.47;;;1.32;100.00
43125;BME280;49182;50.788;7.318;2024-01-15T07:03:26;99495.78;;;1.30;100.00
43125;BME280;49182;50.788;7.318;2024-01-15T07:08:28;99499.72;;;1.23;100.00
43125;BME280;49182;50.788;7.318;2024-01-15T07:13:31;99491.50;;;1.29;100.00
43125;BME280;49182;50.788;7.318;2024-01-15T07:18:33;99482.03;;;1.28;100.00
43125;BME280;49182;50.788;7.318;2024-01-15T07:23:35;99492.53;;;1.26;100.00
43125;BME280;49182;50.788;7.318;2024-01-15T07:28:38;99497.63;;;1.28;100.00
43125;BME280;49182;50.788;7.318;2024-01-15T07:33:40;99495.88;;;1.28;100.00
43125;BME280;49182;50.788;7.318;2024-01-15T07:38:41;99500.00;;;1.18;100.00
43125;BME280;49182;50.788;7.318;2024-01-15T07:43:44;99492.94;;;1.20;100.00
43125;BME280;49182;50.788;7.318;2024-01-15T07:48:46;99493.88;;;1.19;100.00
43125;BME280;49182;50.788;7.318;2024-01-15T07:53:48;99478.69;;;1.13;100.00
43125;BME280;49182;50.788;7.318;2024-01-15T07:58:51;99489.00;;;1.27;100.00
43125;BME280;49182;50.788;7.318;2024-01-15T08:03:53;99456.88;;;1.03;100.00
43125;BME280;49182;50.788;7.318;2024-01-15T08:08:55;99485.66;;;1.25;100.00
43125;BME280;49182;50.788;7.318;2024-01-15T08:13:58;99493.97;;;1.17;100.00
43125;BME280;49182;50.788;7.318;2024-01-15T08:19:00;99494.09;;;1.29;100.00
43125;BME280;49182;50.788;7.318;2024-01-15T08:24:02;99404.56;;;0.82;100.00
43125;BME280;49182;50.788;7.318;2024-01-15T08:29:05;99483.06;;;1.38;100.00
43125;BME280;49182;50.788;7.318;2024-01-15T08:34:07;99487.94;;;1.42;100.00
43125;BME280;49182;50.788;7.318;2024-01-15T08:39:09;99487.25;;;1.40;100.00
43125;BME280;49182;50.788;7.318;2024-01-15T08:44:12;99490.69;;;1.41;100.00
43125;BME280;49182;50.788;7.318;2024-01-15T08:49:14;99461.16;;;1.29;100.00
43125;BME280;49182;50.788;7.318;2024-01-15T08:54:16;99485.47;;;1.41;100.00
43125;BME280;49182;50.788;7.318;2024-01-15T08:59:19;99495.56;;;1.33;100.00
43125;BME280;49182;50.788;7.318;2024-01-15T09:04:20;99494.72;;;1.45;100.00
43125;BME280;49182;50.788;7.318;2024-01-15T09:09:22;99503.13;;;1.48;100.00
43125;BME280;49182;50.788;7.318;2024-01-15T09:14:26;99498.06;;;1.47;100.00
43125;BME280;49182;50.788;7.318;2024-01-15T09:19:37;99496.06;;;1.50;100.00
43125;BME280;49182;50.788;7.318;2024-01-15T09:24:40;99453.53;;;1.13;100.00
43125;BME280;49182;50.788;7.318;2024-01-15T09:29:43;99495.22;;;1.50;100.00
43125;BME280;49182;50.788;7.318;2024-01-15T09:34:45;99490.97;;;1.49;100.00
43125;BME280;49182;50.788;7.318;2024-01-15T09:39:47;99485.06;;;1.47;100.00
43125;BME280;49182;50.788;7.318;2024-01-15T09:44:51;99482.03;;;1.53;100.00
43125;BME280;49182;50.788;7.318;2024-01-15T09:49:52;99483.81;;;1.40;100.00
43125;BME280;49182;50.788;7.318;2024-01-15T09:54:54;99420.06;;;1.21;100.00
43125;BME280;49182;50.788;7.318;2024-01-15T09:59:59;99469.22;;;1.50;100.00
43125;BME280;49182;50.788;7.318;2024-01-15T10:05:05;99473.09;;;1.44;100.00
43125;BME280;49182;50.788;7.318;2024-01-15T10:10:07;99486.72;;;1.23;100.00
43125;BME280;49182;50.788;7.318;2024-01-15T10:15:10;99461.22;;;1.02;100.00
43125;BME280;49182;50.788;7.318;2024-01-15T10:20:12;99497.63;;;1.28;100.00
43125;BME280;49182;50.788;7.318;2024-01-15T10:25:14;99497.19;;;1.08;100.00
43125;BME280;49182;50.788;7.318;2024-01-15T10:30:18;99512.19;;;1.05;100.00
43125;BME280;49182;50.788;7.318;2024-01-15T10:35:21;99508.94;;;1.01;100.00
43125;BME280;49182;50.788;7.318;2024-01-15T10:40:24;99512.38;;;1.02;100.00
43125;BME280;49182;50.788;7.318;2024-01-15T10:45:27;99505.31;;;1.04;100.00
43125;BME280;49182;50.788;7.318;2024-01-15T10:50:29;99515.38;;;1.08;100.00
43125;BME280;49182;50.788;7.318;2024-01-15T10:55:31;99470.66;;;0.78;100.00
43125;BME280;49182;50.788;7.318;2024-01-15T11:00:35;99502.88;;;0.88;100.00
43125;BME280;49182;50.788;7.318;2024-01-15T11:05:37;99503.41;;;0.93;100.00
43125;BME280;49182;50.788;7.318;2024-01-15T11:10:40;99501.03;;;1.03;100.00
43125;BME280;49182;50.788;7.318;2024-01-15T11:15:59;99508.41;;;0.96;100.00
43125;BME280;49182;50.788;7.318;2024-01-15T11:21:20;99399.69;;;0.38;100.00
43125;BME280;49182;50.788;7.318;2024-01-15T11:26:34;99509.66;;;1.03;100.00
43125;BME280;49182;50.788;7.318;2024-01-15T11:32:10;99513.28;;;1.01;100.00
43125;BME280;49182;50.788;7.318;2024-01-15T11:37:12;99493.41;;;0.87;100.00
43125;BME280;49182;50.788;7.318;2024-01-15T11:42:14;99525.00;;;0.94;100.00
43125;BME280;49182;50.788;7.318;2024-01-15T11:47:38;99529.38;;;0.93;100.00
43125;BME280;49182;50.788;7.318;2024-01-15T11:52:50;99533.50;;;1.10;100.00
43125;BME280;49182;50.788;7.318;2024-01-15T11:57:57;99530.06;;;1.09;100.00
43125;BME280;49182;50.788;7.318;2024-01-15T12:03:04;99536.72;;;1.13;100.00
43125;BME280;49182;50.788;7.318;2024-01-15T12:08:06;99536.31;;;1.19;100.00
43125;BME280;49182;50.788;7.318;2024-01-15T12:13:10;99528.72;;;1.16;100.00
43125;BME280;49182;50.788;7.318;2024-01-15T12:18:15;99518.59;;;1.12;100.00
43125;BME280;49182;50.788;7.318;2024-01-15T12:23:18;99519.25;;;1.15;100.00
43125;BME280;49182;50.788;7.318;2024-01-15T12:28:20;99500.50;;;0.85;100.00
43125;BME280;49182;50.788;7.318;2024-01-15T12:33:23;99526.53;;;1.10;100.00
43125;BME280;49182;50.788;7.318;2024-01-15T12:38:25;99518.41;;;1.15;100.00
43125;BME280;49182;50.788;7.318;2024-01-15T12:43:26;99516.25;;;1.34;100.00
43125;BME280;49182;50.788;7.318;2024-01-15T12:48:29;99519.38;;;1.39;100.00
43125;BME280;49182;50.788;7.318;2024-01-15T12:53:31;99521.88;;;1.53;100.00
43125;BME280;49182;50.788;7.318;2024-01-15T12:58:33;99529.97;;;1.49;100.00
43125;BME280;49182;50.788;7.318;2024-01-15T13:03:36;99521.34;;;1.61;100.00
43125;BME280;49182;50.788;7.318;2024-01-15T13:08:38;99526.75;;;1.58;100.00
43125;BME280;49182;50.788;7.318;2024-01-15T13:13:39;99531.03;;;1.59;100.00
43125;BME280;49182;50.788;7.318;2024-01-15T13:18:42;99533.50;;;1.60;100.00
43125;BME280;49182;50.788;7.318;2024-01-15T13:23:44;99530.09;;;1.60;100.00
43125;BME280;49182;50.788;7.318;2024-01-15T13:28:46;99520.81;;;1.56;100.00
43125;BME280;49182;50.788;7.318;2024-01-15T13:33:49;99525.31;;;1.67;100.00
43125;BME280;49182;50.788;7.318;2024-01-15T13:38:51;99532.38;;;1.65;100.00
43125;BME280;49182;50.788;7.318;2024-01-15T13:43:54;99538.31;;;1.54;100.00
43125;BME280;49182;50.788;7.318;2024-01-15T13:48:57;99538.94;;;1.57;100.00
43125;BME280;49182;50.788;7.318;2024-01-15T13:53:59;99543.81;;;1.62;100.00
43125;BME280;49182;50.788;7.318;2024-01-15T13:59:01;99549.13;;;1.60;100.00
43125;BME280;49182;50.788;7.318;2024-01-15T14:04:04;99549.03;;;1.62;100.00
43125;BME280;49182;50.788;7.318;2024-01-15T14:09:06;99554.75;;;1.67;100.00
43125;BME280;49182;50.788;7.318;2024-01-15T14:14:07;99570.16;;;1.57;100.00
43125;BME280;49182;50.788;7.318;2024-01-15T14:19:10;99571.50;;;1.50;100.00
43125;BME280;49182;50.788;7.318;2024-01-15T14:24:12;99558.69;;;1.35;100.00
43125;BME280;49182;50.788;7.318;2024-01-15T14:29:14;99585.63;;;1.34;100.00
43125;BME280;49182;50.788;7.318;2024-01-15T14:34:17;99594.56;;;1.30;100.00
43125;BME280;49182;50.788;7.318;2024-01-15T14:39:18;99581.84;;;1.25;100.00
43125;BME280;49182;50.788;7.318;2024-01-15T14:44:22;99606.53;;;1.32;100.00
43125;BME280;49182;50.788;7.318;2024-01-15T14:49:25;99612.88;;;1.28;100.00
43125;BME280;49182;50.788;7.318;2024-01-15T14:54:27;99621.19;;;1.33;100.00
43125;BME280;49182;50.788;7.318;2024-01-15T14:59:29;99623.78;;;1.33;100.00
43125;BME280;49182;50.788;7.318;2024-01-15T15:04:32;99629.31;;;1.29;100.00
43125;BME280;49182;50.788;7.318;2024-01-15T15:09:34;99639.41;;;1.33;100.00
43125;BME280;49182;50.788;7.318;2024-01-15T15:14:36;99649.84;;;1.19;100.00
43125;BME280;49182;50.788;7.318;2024-01-15T15:19:42;99663.38;;;0.97;100.00
43125;BME280;49182;50.788;7.318;2024-01-15T15:24:44;99669.34;;;1.12;100.00
43125;BME280;49182;50.788;7.318;2024-01-15T15:29:46;99677.91;;;1.14;100.00
43125;BME280;49182;50.788;7.318;2024-01-15T15:34:49;99688.06;;;1.04;100.00
43125;BME280;49182;50.788;7.318;2024-01-15T15:39:51;99694.50;;;1.11;100.00
43125;BME280;49182;50.788;7.318;2024-01-15T15:44:53;99682.22;;;1.01;100.00
43125;BME280;49182;50.788;7.318;2024-01-15T15:50:00;99684.44;;;0.93;100.00
43125;BME280;49182;50.788;7.318;2024-01-15T15:55:03;99724.31;;;1.06;100.00
43125;BME280;49182;50.788;7.318;2024-01-15T16:00:06;99729.25;;;1.10;100.00
43125;BME280;49182;50.788;7.318;2024-01-15T16:05:17;99727.91;;;0.91;100.00
43125;BME280;49182;50.788;7.318;2024-01-15T16:10:18;99747.72;;;1.06;100.00
43125;BME280;49182;50.788;7.318;2024-01-15T16:15:21;99738.28;;;0.91;100.00
43125;BME280;49182;50.788;7.318;2024-01-15T16:20:24;99737.19;;;0.80;100.00
43125;BME280;49182;50.788;7.318;2024-01-15T16:25:46;99780.03;;;1.02;100.00
43125;BME280;49182;50.788;7.318;2024-01-15T16:30:48;99786.63;;;1.07;100.00
43125;BME280;49182;50.788;7.318;2024-01-15T16:35:57;99792.19;;;1.01;100.00
43125;BME280;49182;50.788;7.318;2024-01-15T16:40:59;99794.78;;;1.01;100.00
43125;BME280;49182;50.788;7.318;2024-01-15T16:46:01;99798.16;;;1.03;100.00
43125;BME280;49182;50.788;7.318;2024-01-15T16:51:04;99798.69;;;0.94;100.00
43125;BME280;49182;50.788;7.318;2024-01-15T16:56:06;99803.81;;;0.96;100.00
43125;BME280;49182;50.788;7.318;2024-01-15T17:01:07;99810.00;;;0.93;100.00
43125;BME280;49182;50.788;7.318;2024-01-15T17:06:11;99818.56;;;0.95;100.00
43125;BME280;49182;50.788;7.318;2024-01-15T17:11:13;99826.44;;;0.94;100.00
43125;BME280;49182;50.788;7.318;2024-01-15T17:16:15;99825.81;;;1.04;100.00
43125;BME280;49182;50.788;7.318;2024-01-15T17:21:18;99832.56;;;1.07;100.00
43125;BME280;49182;50.788;7.318;2024-01-15T17:26:19;99844.63;;;1.08;100.00
43125;BME280;49182;50.788;7.318;2024-01-15T17:31:21;99833.31;;;0.95;100.00
43125;BME280;49182;50.788;7.318;2024-01-15T17:36:24;99850.47;;;1.11;100.00
43125;BME280;49182;50.788;7.318;2024-01-15T17:41:26;99863.66;;;1.08;100.00
43125;BME280;49182;50.788;7.318;2024-01-15T17:46:27;99856.34;;;1.01;100.00
43125;BME280;49182;50.788;7.318;2024-01-15T17:51:32;99871.91;;;1.01;100.00
43125;BME280;49182;50.788;7.318;2024-01-15T17:56:34;99878.25;;;0.97;100.00
43125;BME280;49182;50.788;7.318;2024-01-15T18:01:36;99842.84;;;0.66;100.00
43125;BME280;49182;50.788;7.318;2024-01-15T18:06:39;99827.09;;;0.55;100.00
43125;BME280;49182;50.788;7.318;2024-01-15T18:11:41;99876.38;;;0.85;100.00
43125;BME280;49182;50.788;7.318;2024-01-15T18:16:42;99899.94;;;0.81;100.00
43125;BME280;49182;50.788;7.318;2024-01-15T18:21:45;99905.41;;;0.77;100.00
43125;BME280;49182;50.788;7.318;2024-01-15T18:26:49;99879.75;;;0.57;100.00
43125;BME280;49182;50.788;7.318;2024-01-15T18:31:52;99943.50;;;0.92;100.00
43125;BME280;49182;50.788;7.318;2024-01-15T18:36:55;99937.44;;;0.92;100.00
43125;BME280;49182;50.788;7.318;2024-01-15T18:41:56;99942.53;;;0.93;100.00
43125;BME280;49182;50.788;7.318;2024-01-15T18:46:58;99934.84;;;0.92;100.00
43125;BME280;49182;50.788;7.318;2024-01-15T18:52:01;99902.03;;;0.61;100.00
43125;BME280;49182;50.788;7.318;2024-01-15T18:57:03;99948.69;;;0.92;100.00
43125;BME280;49182;50.788;7.318;2024-01-15T19:02:05;99951.72;;;0.85;100.00
43125;BME280;49182;50.788;7.318;2024-01-15T19:07:08;99958.13;;;0.93;100.00
43125;BME280;49182;50.788;7.318;2024-01-15T19:12:10;99927.81;;;0.64;100.00
43125;BME280;49182;50.788;7.318;2024-01-15T19:17:12;99961.28;;;0.84;100.00
43125;BME280;49182;50.788;7.318;2024-01-15T19:22:15;99974.66;;;0.92;100.00
43125;BME280;49182;50.788;7.318;2024-01-15T19:27:16;99966.03;;;0.92;100.00
43125;BME280;49182;50.788;7.318;2024-01-15T19:32:18;99968.34;;;0.96;100.00
43125;BME280;49182;50.788;7.318;2024-01-15T19:37:21;99979.38;;;0.86;100.00
43125;BME280;49182;50.788;7.318;2024-01-15T19:42:23;99985.50;;;0.85;100.00
43125;BME280;49182;50.788;7.318;2024-01-15T19:47:25;99996.38;;;0.91;100.00
43125;BME280;49182;50.788;7.318;2024-01-15T19:52:28;99999.34;;;0.85;100.00
43125;BME280;49182;50.788;7.318;2024-01-15T19:57:30;99986.22;;;0.57;100.00
43125;BME280;49182;50.788;7.318;2024-01-15T20:02:31;100010.44;;;0.87;100.00
43125;BME280;49182;50.788;7.318;2024-01-15T20:07:34;100018.09;;;0.90;100.00
43125;BME280;49182;50.788;7.318;2024-01-15T20:12:38;100012.81;;;0.92;100.00
43125;BME280;49182;50.788;7.318;2024-01-15T20:17:40;100008.81;;;0.86;100.00
43125;BME280;49182;50.788;7.318;2024-01-15T20:22:43;100022.19;;;0.94;100.00
43125;BME280;49182;50.788;7.318;2024-01-15T20:27:45;100029.88;;;0.96;100.00
43125;BME280;49182;50.788;7.318;2024-01-15T20:32:46;100050.75;;;0.94;100.00
43125;BME280;49182;50.788;7.318;2024-01-15T20:37:51;100049.09;;;0.93;100.00
43125;BME280;49182;50.788;7.318;2024-01-15T20:42:53;100050.75;;;0.94;100.00
43125;BME280;49182;50.788;7.318;2024-01-15T20:47:55;100038.88;;;0.74;100.00
43125;BME280;49182;50.788;7.318;2024-01-15T20:52:58;100019.22;;;0.70;100.00
43125;BME280;49182;50.788;7.318;2024-01-15T20:58:00;100065.13;;;0.86;100.00
43125;BME280;49182;50.788;7.318;2024-01-15T21:03:02;100062.25;;;0.90;100.00
43125;BME280;49182;50.788;7.318;2024-01-15T21:08:05;100075.41;;;0.87;100.00
43125;BME280;49182;50.788;7.318;2024-01-15T21:13:07;100063.78;;;0.78;100.00
43125;BME280;49182;50.788;7.318;2024-01-15T21:18:09;100060.50;;;0.75;100.00
43125;BME280;49182;50.788;7.318;2024-01-15T21:23:12;100082.47;;;0.85;100.00
43125;BME280;49182;50.788;7.318;2024-01-15T21:28:14;100078.13;;;0.86;100.00
43125;BME280;49182;50.788;7.318;2024-01-15T21:33:15;100079.97;;;0.84;100.00
43125;BME280;49182;50.788;7.318;2024-01-15T21:38:18;100059.09;;;0.69;100.00
43125;BME280;49182;50.788;7.318;2024-01-15T21:43:20;100085.16;;;0.84;100.00
43125;BME280;49182;50.788;7.318;2024-01-15T21:48:22;100090.34;;;0.84;100.00
43125;BME280;49182;50.788;7.318;2024-01-15T21:53:25;100092.59;;;0.90;100.00
43125;BME280;49182;50.788;7.318;2024-01-15T21:58:27;100092.28;;;0.80;100.00
43125;BME280;49182;50.788;7.318;2024-01-15T22:03:28;100100.66;;;0.85;100.00
43125;BME280;49182;50.788;7.318;2024-01-15T22:08:31;100097.63;;;0.93;100.00
43125;BME280;49182;50.788;7.318;2024-01-15T22:13:33;100115.38;;;1.00;100.00
43125;BME280;49182;50.788;7.318;2024-01-15T22:18:35;100116.22;;;1.01;100.00
43125;BME280;49182;50.788;7.318;2024-01-15T22:23:39;100127.53;;;1.00;100.00
43125;BME280;49182;50.788;7.318;2024-01-15T22:28:41;100041.44;;;0.45;100.00
43125;BME280;49182;50.788;7.318;2024-01-15T22:33:43;100135.69;;;0.94;100.00
43125;BME280;49182;50.788;7.318;2024-01-15T22:38:46;100141.56;;;0.97;100.00
43125;BME280;49182;50.788;7.318;2024-01-15T22:43:48;100149.34;;;0.97;100.00
43125;BME280;49182;50.788;7.318;2024-01-15T22:48:49;100150.00;;;1.01;100.00
43125;BME280;49182;50.788;7.318;2024-01-15T22:53:53;100153.44;;;1.01;100.00
43125;BME280;49182;50.788;7.318;2024-01-15T22:58:55;100151.03;;;0.98;100.00
43125;BME280;49182;50.788;7.318;2024-01-15T23:03:57;100157.53;;;1.05;100.00
43125;BME280;49182;50.788;7.318;2024-01-15T23:09:00;100157.72;;;1.02;100.00
43125;BME280;49182;50.788;7.318;2024-01-15T23:14:01;100154.78;;;1.08;100.00
43125;BME280;49182;50.788;7.318;2024-01-15T23:19:03;100159.16;;;1.08;100.00
43125;BME280;49182;50.788;7.318;2024-01-15T23:24:07;100160.25;;;1.04;100.00
43125;BME280;49182;50.788;7.318;2024-01-15T23:29:09;100152.72;;;0.84;100.00
43125;BME280;49182;50.788;7.318;2024-01-15T23:34:11;100174.84;;;0.91;100.00
43125;BME280;49182;50.788;7.318;2024-01-15T23:39:14;100175.28;;;0.99;100.00
43125;BME280;49182;50.788;7.318;2024-01-15T23:44:16;100176.41;;;0.93;100.00
43125;BME280;49182;50.788;7.318;2024-01-15T23:49:17;100111.25;;;0.66;100.00
43125;BME280;49182;50.788;7.318;2024-01-15T23:54:20;100133.69;;;0.83;100.00
43125;BME280;49182;50.788;7.318;2024-01-15T23:59:22;100184.16;;;1.10;100.00
